createdAt,value
2018-03-01T00:01:13.049Z,37.60
2018-03-01T00:03:40.585Z,37.95
2018-03-01T00:06:08.152Z,35.00
2018-03-01T00:08:35.701Z,32.45
2018-03-01T00:11:03.208Z,36.13
2018-03-01T00:13:32.195Z,31.67
2018-03-01T00:15:59.882Z,41.15
2018-03-01T00:18:28.259Z,34.30
2018-03-01T00:20:55.793Z,43.33
2018-03-01T00:23:24.133Z,36.28
2018-03-01T00:25:51.647Z,28.95
2018-03-01T00:28:19.181Z,64.35
2018-03-01T00:30:46.699Z,38.35
2018-03-01T00:33:14.214Z,34.47
2018-03-01T00:35:41.769Z,39.60
2018-03-01T00:38:09.443Z,37.38
2018-03-01T00:40:36.956Z,43.78
2018-03-01T00:43:04.721Z,37.42
2018-03-01T00:45:32.232Z,38.42
2018-03-01T00:47:59.758Z,41.70
2018-03-01T00:50:27.266Z,35.17
2018-03-01T00:52:54.766Z,34.20
2018-03-01T00:55:22.770Z,47.45
2018-03-01T00:57:50.285Z,39.13
2018-03-01T01:00:18.125Z,37.10
2018-03-01T01:02:46.106Z,37.47
2018-03-01T01:05:13.621Z,30.62
2018-03-01T01:07:41.137Z,29.17
2018-03-01T01:10:08.821Z,41.97
2018-03-01T01:12:36.334Z,34.28
2018-03-01T01:15:03.521Z,35.08
2018-03-01T01:17:31.057Z,39.22
2018-03-01T01:19:58.595Z,33.13
2018-03-01T01:22:26.127Z,32.92
2018-03-01T01:24:53.950Z,37.25
2018-03-01T01:27:21.468Z,32.75
2018-03-01T01:29:49.874Z,29.58
2018-03-01T01:32:18.086Z,31.12
2018-03-01T01:34:46.741Z,26.65
2018-03-01T01:37:14.259Z,30.25
2018-03-01T01:39:41.772Z,34.15
2018-03-01T01:42:09.905Z,36.58
2018-03-01T01:44:37.417Z,40.12
2018-03-01T01:47:04.950Z,35.22
2018-03-01T01:49:32.719Z,44.00
2018-03-01T01:52:00.224Z,33.92
2018-03-01T01:54:27.741Z,33.53
2018-03-01T01:56:55.647Z,39.28
2018-03-01T01:59:23.164Z,39.15
2018-03-01T02:01:50.762Z,38.00
2018-03-01T02:04:18.272Z,34.97
2018-03-01T02:06:46.462Z,33.65
2018-03-01T02:09:13.966Z,35.53
2018-03-01T02:11:43.592Z,36.08
2018-03-01T02:14:11.717Z,42.60
2018-03-01T02:16:41.922Z,33.88
2018-03-01T02:19:09.440Z,39.15
2018-03-01T02:21:36.960Z,47.95
2018-03-01T02:24:04.513Z,43.95
2018-03-01T02:26:32.049Z,39.10
2018-03-01T02:28:59.932Z,41.88
2018-03-01T02:31:27.714Z,36.40
2018-03-01T02:33:55.226Z,37.17
2018-03-01T02:36:28.162Z,46.33
2018-03-01T02:38:55.687Z,43.25
2018-03-01T02:41:23.274Z,47.58
2018-03-01T02:43:51.802Z,39.55
2018-03-01T02:46:19.117Z,40.05
2018-03-01T02:48:46.636Z,43.45
2018-03-01T02:51:14.166Z,38.83
2018-03-01T02:53:41.690Z,45.47
2018-03-01T02:56:09.217Z,41.40
2018-03-01T02:58:36.738Z,57.20
2018-03-01T03:01:04.283Z,41.78
2018-03-01T03:03:31.792Z,35.10
2018-03-01T03:05:59.306Z,37.38
2018-03-01T03:08:26.821Z,43.85
2018-03-01T03:10:54.341Z,37.90
2018-03-01T03:13:21.841Z,33.15
2018-03-01T03:15:49.366Z,44.83
2018-03-01T03:18:16.882Z,43.45
2018-03-01T03:20:44.400Z,42.03
2018-03-01T03:23:11.926Z,36.83
2018-03-01T03:25:39.877Z,41.00
2018-03-01T03:28:07.522Z,36.08
2018-03-01T03:30:35.032Z,34.75
2018-03-01T03:33:02.271Z,30.73
2018-03-01T03:35:30.164Z,30.65
2018-03-01T03:37:57.689Z,34.22
2018-03-01T03:40:25.779Z,26.50
2018-03-01T03:42:53.299Z,30.35
2018-03-01T03:45:20.826Z,29.45
2018-03-01T03:47:48.340Z,23.67
2018-03-01T03:50:16.150Z,30.05
2018-03-01T03:52:43.518Z,28.20
2018-03-01T03:55:13.078Z,25.48
2018-03-01T03:57:40.611Z,25.80
2018-03-01T04:00:16.747Z,34.92
2018-03-01T04:02:44.265Z,26.80
2018-03-01T04:05:11.775Z,26.92
2018-03-01T04:07:39.288Z,34.70
2018-03-01T04:10:11.484Z,32.00
2018-03-01T04:12:39.002Z,30.58
2018-03-01T04:15:10.033Z,30.08
2018-03-01T04:17:38.133Z,28.87
2018-03-01T04:20:05.459Z,36.75
2018-03-01T04:22:32.977Z,26.65
2018-03-01T04:25:01.458Z,31.40
2018-03-01T04:27:30.461Z,34.63
2018-03-01T04:29:57.969Z,37.42
2018-03-01T04:32:25.479Z,42.75
2018-03-01T04:34:53.009Z,34.65
2018-03-01T04:37:20.545Z,35.25
2018-03-01T04:39:48.053Z,38.20
2018-03-01T04:42:15.582Z,37.22
2018-03-01T04:44:43.099Z,32.03
2018-03-01T04:47:10.618Z,36.00
2018-03-01T04:49:38.730Z,39.22
2018-03-01T04:52:06.253Z,39.13
2018-03-01T04:54:34.255Z,37.83
2018-03-01T04:57:02.562Z,41.30
2018-03-01T04:59:30.143Z,38.30
2018-03-01T05:01:57.661Z,27.87
2018-03-01T05:04:25.180Z,27.58
2018-03-01T05:06:52.719Z,31.50
2018-03-01T05:09:20.257Z,29.95
2018-03-01T05:11:47.778Z,30.67
2018-03-01T05:14:15.292Z,28.17
2018-03-01T05:16:42.820Z,28.90
2018-03-01T05:19:10.356Z,38.20
2018-03-01T05:21:37.873Z,34.45
2018-03-01T05:24:05.405Z,37.05
2018-03-01T05:26:32.914Z,44.53
2018-03-01T05:29:00.453Z,33.97
2018-03-01T05:31:27.980Z,34.22
2018-03-01T05:33:55.506Z,36.42
2018-03-01T05:36:23.020Z,32.40
2018-03-01T05:38:50.552Z,35.55
2018-03-01T05:41:18.090Z,34.30
2018-03-01T05:43:45.602Z,36.75
2018-03-01T05:46:13.121Z,30.15
2018-03-01T05:48:40.670Z,30.88
2018-03-01T05:51:08.185Z,40.53
2018-03-01T05:53:35.698Z,33.33
2018-03-01T05:56:03.221Z,45.95
2018-03-01T05:58:31.406Z,31.48
2018-03-01T06:00:58.748Z,43.92
2018-03-01T06:03:26.945Z,40.20
2018-03-01T06:05:55.823Z,42.60
2018-03-01T06:08:24.030Z,39.13
2018-03-01T06:10:51.562Z,47.28
2018-03-01T06:13:19.341Z,35.10
2018-03-01T06:15:46.900Z,41.30
2018-03-01T06:18:14.602Z,43.55
2018-03-01T06:20:42.122Z,37.35
2018-03-01T06:23:09.642Z,63.38
2018-03-01T06:25:37.155Z,39.20
2018-03-01T06:28:04.707Z,46.13
2018-03-01T06:30:32.261Z,44.95
2018-03-01T06:32:59.792Z,36.45
2018-03-01T06:35:27.303Z,47.75
2018-03-01T06:37:54.828Z,42.80
2018-03-01T06:40:22.349Z,38.03
2018-03-01T06:42:49.874Z,40.92
2018-03-01T06:45:17.418Z,42.33
2018-03-01T06:47:44.938Z,39.65
2018-03-01T06:50:13.273Z,40.00
2018-03-01T06:52:40.789Z,49.85
2018-03-01T06:55:10.356Z,48.20
2018-03-01T06:57:37.877Z,51.20
2018-03-01T07:02:38.161Z,53.78
2018-03-01T07:05:05.792Z,46.03
2018-03-01T07:07:33.320Z,39.67
2018-03-01T07:10:00.890Z,42.95
2018-03-01T07:12:28.422Z,51.63
2018-03-01T07:14:56.043Z,41.88
2018-03-01T07:17:23.561Z,40.38
2018-03-01T07:19:51.090Z,48.63
2018-03-01T07:22:19.725Z,44.78
2018-03-01T07:24:47.233Z,37.53
2018-03-01T07:27:14.747Z,54.58
2018-03-01T07:29:42.254Z,45.20
2018-03-01T07:32:09.770Z,41.05
2018-03-01T07:34:37.283Z,43.87
2018-03-01T07:37:05.209Z,48.22
2018-03-01T07:39:32.859Z,34.15
2018-03-01T07:42:00.385Z,37.53
2018-03-01T07:44:27.901Z,40.95
2018-03-01T07:46:55.423Z,53.10
2018-03-01T07:49:22.928Z,35.55
2018-03-01T07:51:50.434Z,45.22
2018-03-01T07:54:17.942Z,41.40
2018-03-01T07:56:45.461Z,33.08
2018-03-01T07:59:12.978Z,43.45
2018-03-01T08:01:40.488Z,41.30
2018-03-01T08:04:08.025Z,39.88
2018-03-01T08:06:35.581Z,44.80
2018-03-01T08:09:02.583Z,52.47
2018-03-01T08:11:30.133Z,41.70
2018-03-01T08:13:57.649Z,45.22
2018-03-01T08:16:25.173Z,50.60
2018-03-01T08:18:52.679Z,46.17
2018-03-01T08:21:20.217Z,45.38
2018-03-01T08:23:47.735Z,35.78
2018-03-01T08:26:15.731Z,44.25
2018-03-01T08:28:43.257Z,44.85
2018-03-01T08:31:11.005Z,38.00
2018-03-01T08:33:38.526Z,47.30
2018-03-01T08:36:06.060Z,48.45
2018-03-01T08:38:33.568Z,55.17
2018-03-01T08:41:01.086Z,44.67
2018-03-01T08:43:28.624Z,42.60
2018-03-01T08:45:56.142Z,50.30
2018-03-01T08:48:23.658Z,45.25
2018-03-01T08:50:50.993Z,64.60
2018-03-01T08:53:18.510Z,29.87
2018-03-01T08:55:46.030Z,41.95
2018-03-01T08:58:13.358Z,39.55
2018-03-01T09:00:40.872Z,40.22
2018-03-01T09:03:08.424Z,36.67
2018-03-01T09:05:35.937Z,54.65
2018-03-01T09:08:03.452Z,41.53
2018-03-01T09:10:31.808Z,46.97
2018-03-01T09:12:59.464Z,45.70
2018-03-01T09:15:26.994Z,50.30
2018-03-01T09:17:54.513Z,44.50
2018-03-01T09:20:22.032Z,46.22
2018-03-01T09:22:49.559Z,38.97
2018-03-01T09:25:17.796Z,33.67
2018-03-01T09:27:45.913Z,49.90
2018-03-01T09:30:13.425Z,47.80
2018-03-01T09:32:41.079Z,37.72
2018-03-01T09:35:08.687Z,46.30
2018-03-01T09:37:36.205Z,54.05
2018-03-01T09:40:03.402Z,50.22
2018-03-01T09:42:30.918Z,41.95
2018-03-01T09:44:58.438Z,51.70
2018-03-01T09:47:25.965Z,53.35
2018-03-01T09:49:53.488Z,53.28
2018-03-01T09:52:21.010Z,52.47
2018-03-01T09:54:48.557Z,48.38
2018-03-01T09:57:16.067Z,57.83
2018-03-01T09:59:43.583Z,55.58
2018-03-01T10:02:11.101Z,53.97
2018-03-01T10:04:38.610Z,58.13
2018-03-01T10:07:06.180Z,56.20
2018-03-01T10:09:33.850Z,64.62
2018-03-01T10:12:01.380Z,58.20
2018-03-01T10:14:28.882Z,50.60
2018-03-01T10:16:56.374Z,50.17
2018-03-01T10:19:23.895Z,58.35
2018-03-01T10:21:51.422Z,63.17
2018-03-01T10:24:18.937Z,56.17
2018-03-01T10:26:46.474Z,47.15
2018-03-01T10:29:14.002Z,64.60
2018-03-01T10:31:41.524Z,51.75
2018-03-01T10:34:09.042Z,53.75
2018-03-01T10:36:36.562Z,56.28
2018-03-01T10:39:03.765Z,54.45
2018-03-01T10:41:31.295Z,50.28
2018-03-01T10:43:58.810Z,50.42
2018-03-01T10:46:27.252Z,40.35
2018-03-01T10:48:54.780Z,45.42
2018-03-01T10:51:22.305Z,42.88
2018-03-01T10:53:49.830Z,33.65
2018-03-01T10:56:17.342Z,33.92
2018-03-01T10:58:44.882Z,40.60
2018-03-01T11:01:17.871Z,40.72
2018-03-01T11:03:45.390Z,41.25
2018-03-01T11:06:12.907Z,42.25
2018-03-01T11:08:40.237Z,46.83
2018-03-01T11:11:07.764Z,45.50
2018-03-01T11:13:35.135Z,42.58
2018-03-01T11:16:02.655Z,39.42
2018-03-01T11:18:29.995Z,49.20
2018-03-01T11:20:57.502Z,45.30
2018-03-01T11:23:24.841Z,35.95
2018-03-01T11:25:52.526Z,35.13
2018-03-01T11:28:19.943Z,46.97
2018-03-01T11:30:47.453Z,36.60
2018-03-01T11:33:14.972Z,41.50
2018-03-01T11:35:42.488Z,37.70
2018-03-01T11:38:10.002Z,32.33
2018-03-01T11:40:37.523Z,40.78
2018-03-01T11:43:05.026Z,34.42
2018-03-01T11:45:32.541Z,40.55
2018-03-01T11:48:00.074Z,40.00
2018-03-01T11:50:27.589Z,38.55
2018-03-01T11:52:55.154Z,37.13
2018-03-01T11:55:22.677Z,38.30
2018-03-01T11:57:50.218Z,39.03
2018-03-01T12:00:17.740Z,45.45
2018-03-01T12:02:45.257Z,35.35
2018-03-01T12:05:12.774Z,39.83
2018-03-01T12:07:40.313Z,46.80
2018-03-01T12:10:07.917Z,44.92
2018-03-01T12:12:35.457Z,35.42
2018-03-01T12:15:02.970Z,30.40
2018-03-01T12:17:30.493Z,40.08
2018-03-01T12:19:58.006Z,38.88
2018-03-01T12:22:25.532Z,39.15
2018-03-01T12:24:53.066Z,34.22
2018-03-01T12:27:20.687Z,32.83
2018-03-01T12:29:50.152Z,33.08
2018-03-01T12:32:17.662Z,35.78
2018-03-01T12:34:45.236Z,31.45
2018-03-01T12:37:12.758Z,40.60
2018-03-01T12:39:40.280Z,34.63
2018-03-01T12:42:07.814Z,31.90
2018-03-01T12:44:35.380Z,29.17
2018-03-01T12:47:02.982Z,31.17
2018-03-01T12:49:30.320Z,33.33
2018-03-01T12:51:57.676Z,31.45
2018-03-01T12:54:25.009Z,26.10
2018-03-01T12:56:52.350Z,28.58
2018-03-01T12:59:19.695Z,28.50
2018-03-01T13:01:47.054Z,27.40
2018-03-01T13:04:14.396Z,30.02
2018-03-01T13:06:41.717Z,39.88
2018-03-01T13:09:09.562Z,34.13
2018-03-01T13:11:37.347Z,32.13
2018-03-01T13:14:04.693Z,34.30
2018-03-01T13:16:32.027Z,31.55
2018-03-01T13:18:59.373Z,30.77
2018-03-01T13:21:26.717Z,32.03
2018-03-01T13:23:54.094Z,29.05
2018-03-01T13:26:21.452Z,33.15
2018-03-01T13:28:48.780Z,39.90
2018-03-01T13:31:21.047Z,30.83
2018-03-01T13:33:55.957Z,31.35
2018-03-01T13:36:22.942Z,41.03
2018-03-01T13:38:50.677Z,35.08
2018-03-01T13:41:17.990Z,32.33
2018-03-01T13:43:45.321Z,29.48
2018-03-01T13:46:19.243Z,39.08
2018-03-01T13:48:46.574Z,31.10
2018-03-01T13:51:13.910Z,32.35
2018-03-01T13:53:41.454Z,31.35
2018-03-01T13:56:08.794Z,29.87
2018-03-01T13:58:36.135Z,34.67
2018-03-01T14:01:03.478Z,34.67
2018-03-01T14:03:30.826Z,32.20
2018-03-01T14:06:00.955Z,36.38
2018-03-01T14:08:28.351Z,34.92
2018-03-01T14:10:55.834Z,34.05
2018-03-01T14:13:38.867Z,32.65
2018-03-01T14:16:06.190Z,37.95
2018-03-01T14:18:33.578Z,34.30
2018-03-01T14:21:16.568Z,23.65
2018-03-01T14:23:58.797Z,31.62
2018-03-01T14:26:26.812Z,31.85
2018-03-01T14:29:11.826Z,32.85
2018-03-01T14:31:39.160Z,28.62
2018-03-01T14:34:06.677Z,26.15
2018-03-01T14:36:34.198Z,34.28
2018-03-01T14:39:01.723Z,33.22
2018-03-01T14:41:29.230Z,34.90
2018-03-01T14:43:56.758Z,29.35
2018-03-01T14:46:24.274Z,36.08
2018-03-01T14:48:51.879Z,32.22
2018-03-01T14:51:19.568Z,28.38
2018-03-01T14:53:47.686Z,34.03
2018-03-01T14:56:15.189Z,32.55
2018-03-01T14:58:42.776Z,32.05
2018-03-01T15:01:10.494Z,35.17
2018-03-01T15:03:38.254Z,38.10
2018-03-01T15:06:05.831Z,30.58
2018-03-01T15:08:33.363Z,39.28
2018-03-01T15:11:00.869Z,23.77
2018-03-01T15:13:28.386Z,37.67
2018-03-01T15:15:56.017Z,34.65
2018-03-01T15:18:23.625Z,36.15
2018-03-01T15:20:52.030Z,34.08
2018-03-01T15:23:19.558Z,29.40
2018-03-01T15:25:47.088Z,33.92
2018-03-01T15:28:14.657Z,37.72
2018-03-01T15:30:42.190Z,38.47
2018-03-01T15:33:09.719Z,35.67
2018-03-01T15:35:37.268Z,34.80
2018-03-01T15:38:04.950Z,30.25
2018-03-01T15:40:32.474Z,32.67
2018-03-01T15:43:00.006Z,39.08
2018-03-01T15:45:27.519Z,39.40
2018-03-01T15:47:55.064Z,46.15
2018-03-01T15:50:22.786Z,33.35
2018-03-01T15:52:50.313Z,35.92
2018-03-01T15:55:17.852Z,34.55
2018-03-01T15:57:45.562Z,32.88
2018-03-01T16:00:13.114Z,34.85
2018-03-01T16:02:40.817Z,34.55
2018-03-01T16:05:08.437Z,36.20
2018-03-01T16:07:35.952Z,37.88
2018-03-01T16:10:03.133Z,37.42
2018-03-01T16:12:30.644Z,36.47
2018-03-01T16:14:57.995Z,32.22
2018-03-01T16:17:25.519Z,36.05
2018-03-01T16:19:53.041Z,36.33
2018-03-01T16:22:20.558Z,34.25
2018-03-01T16:24:48.069Z,35.03
2018-03-01T16:27:15.843Z,47.20
2018-03-01T16:29:43.392Z,38.72
2018-03-01T16:32:11.061Z,37.15
2018-03-01T16:34:38.578Z,43.20
2018-03-01T16:37:06.090Z,31.60
2018-03-01T16:39:33.614Z,43.72
2018-03-01T16:42:01.133Z,43.33
2018-03-01T16:44:29.200Z,38.95
2018-03-01T16:46:56.723Z,38.83
2018-03-01T16:49:25.666Z,45.08
2018-03-01T16:51:53.710Z,43.55
2018-03-01T16:54:21.885Z,37.50
2018-03-01T16:56:49.431Z,42.45
2018-03-01T16:59:17.883Z,38.90
2018-03-01T17:01:45.475Z,47.45
2018-03-01T17:04:13.014Z,36.88
2018-03-01T17:06:40.553Z,46.17
2018-03-01T17:09:08.136Z,40.35
2018-03-01T17:11:35.783Z,44.38
2018-03-01T17:14:03.360Z,41.15
2018-03-01T17:16:30.883Z,38.13
2018-03-01T17:18:58.412Z,44.03
2018-03-01T17:21:26.575Z,40.75
2018-03-01T17:23:54.090Z,41.25
2018-03-01T17:26:21.609Z,39.72
2018-03-01T17:28:49.113Z,38.30
2018-03-01T17:31:16.646Z,34.45
2018-03-01T17:33:44.161Z,37.25
2018-03-01T17:36:11.671Z,35.65
2018-03-01T17:38:39.190Z,36.38
2018-03-01T17:41:06.709Z,37.58
2018-03-01T17:43:34.226Z,44.97
2018-03-01T17:46:01.742Z,38.45
2018-03-01T17:48:29.265Z,40.33
2018-03-01T17:50:56.793Z,46.90
2018-03-01T17:53:24.691Z,45.75
2018-03-01T17:55:52.219Z,54.75
2018-03-01T17:58:19.804Z,48.83
2018-03-01T18:00:47.353Z,50.63
2018-03-01T18:03:14.911Z,47.72
2018-03-01T18:05:42.447Z,51.33
2018-03-01T18:08:09.946Z,58.00
2018-03-01T18:10:37.470Z,52.97
2018-03-01T18:13:04.982Z,54.05
2018-03-01T18:15:32.505Z,48.58
2018-03-01T18:18:00.051Z,48.75
2018-03-01T18:20:27.554Z,55.30
2018-03-01T18:22:55.062Z,57.85
2018-03-01T18:25:22.570Z,52.88
2018-03-01T18:27:50.090Z,57.78
2018-03-01T18:30:18.410Z,55.42
2018-03-01T18:32:45.940Z,51.83
2018-03-01T18:35:13.461Z,57.58
2018-03-01T18:37:41.752Z,55.97
2018-03-01T18:40:09.722Z,54.92
2018-03-01T18:42:37.259Z,48.72
2018-03-01T18:45:08.827Z,51.25
2018-03-01T18:47:36.365Z,49.42
2018-03-01T18:50:03.572Z,52.95
2018-03-01T18:52:31.110Z,43.58
2018-03-01T18:54:58.746Z,50.97
2018-03-01T18:57:27.358Z,51.47
2018-03-01T18:59:54.870Z,48.25
2018-03-01T19:02:22.386Z,53.58
2018-03-01T19:04:49.928Z,43.75
2018-03-01T19:07:18.157Z,50.92
2018-03-01T19:09:45.666Z,44.80
2018-03-01T19:12:13.207Z,46.17
2018-03-01T19:14:40.734Z,46.37
2018-03-01T19:17:08.248Z,44.90
2018-03-01T19:19:35.754Z,51.17
2018-03-01T19:22:03.313Z,49.88
2018-03-01T19:24:30.830Z,59.70
2018-03-01T19:26:58.339Z,53.28
2018-03-01T19:29:25.867Z,48.05
2018-03-01T19:31:53.418Z,50.22
2018-03-01T19:34:21.130Z,51.50
2018-03-01T19:36:48.653Z,56.00
2018-03-01T19:39:16.889Z,51.75
2018-03-01T19:41:44.394Z,52.25
2018-03-01T19:44:11.921Z,52.58
2018-03-01T19:46:39.437Z,52.92
2018-03-01T19:49:09.960Z,49.83
2018-03-01T19:51:37.469Z,53.58
2018-03-01T19:54:04.998Z,53.40
2018-03-01T19:56:32.521Z,59.25
2018-03-01T19:59:00.039Z,50.65
2018-03-01T20:01:27.300Z,55.20
2018-03-01T20:03:54.883Z,54.75
2018-03-01T20:06:22.402Z,56.40
2018-03-01T20:08:49.930Z,51.67
2018-03-01T20:11:17.448Z,51.83
2018-03-01T20:13:45.003Z,47.45
2018-03-01T20:16:12.505Z,57.95
2018-03-01T20:18:40.025Z,53.25
2018-03-01T20:21:07.558Z,51.10
2018-03-01T20:23:35.098Z,48.67
2018-03-01T20:26:05.739Z,59.58
2018-03-01T20:28:33.272Z,52.90
2018-03-01T20:31:00.797Z,54.58
2018-03-01T20:33:28.412Z,51.05
2018-03-01T20:35:55.936Z,54.67
2018-03-01T20:38:23.446Z,60.20
2018-03-01T20:40:51.071Z,61.67
2018-03-01T20:43:18.590Z,53.28
2018-03-01T20:45:46.098Z,48.87
2018-03-01T20:48:13.646Z,50.38
2018-03-01T20:50:41.163Z,50.30
2018-03-01T20:53:08.684Z,49.25
2018-03-01T20:55:36.282Z,51.15
2018-03-01T20:58:03.874Z,44.85
2018-03-01T21:00:31.388Z,50.92
2018-03-01T21:02:59.104Z,49.63
2018-03-01T21:05:26.696Z,44.95
2018-03-01T21:07:54.380Z,57.42
2018-03-01T21:10:22.032Z,45.90
2018-03-01T21:12:49.549Z,62.13
2018-03-01T21:15:17.866Z,55.78
2018-03-01T21:17:45.403Z,43.70
2018-03-01T21:20:17.175Z,55.42
2018-03-01T21:22:44.731Z,60.30
2018-03-01T21:25:16.673Z,51.47
2018-03-01T21:27:44.318Z,56.47
2018-03-01T21:30:11.638Z,61.17
2018-03-01T21:32:39.409Z,55.60
2018-03-01T21:35:10.253Z,58.83
2018-03-01T21:37:37.768Z,59.45
2018-03-01T21:40:05.446Z,59.47
2018-03-01T21:42:32.763Z,47.03
2018-03-01T21:45:00.282Z,47.08
2018-03-01T21:47:27.794Z,51.35
2018-03-01T21:49:55.394Z,50.65
2018-03-01T21:52:22.906Z,47.50
2018-03-01T21:54:50.478Z,47.40
2018-03-01T21:57:18.006Z,46.70
2018-03-01T21:59:45.601Z,46.83
2018-03-01T22:02:13.164Z,46.50
2018-03-01T22:04:40.838Z,42.70
2018-03-01T22:07:08.586Z,50.42
2018-03-01T22:09:36.141Z,44.15
2018-03-01T22:12:03.681Z,53.33
2018-03-01T22:14:31.213Z,45.60
2018-03-01T22:16:59.222Z,45.05
2018-03-01T22:19:26.754Z,49.72
2018-03-01T22:21:54.529Z,41.13
2018-03-01T22:24:22.045Z,44.20
2018-03-01T22:26:49.576Z,40.85
2018-03-01T22:29:17.101Z,41.92
2018-03-01T22:31:44.695Z,42.30
2018-03-01T22:34:12.217Z,41.03
2018-03-01T22:36:39.738Z,39.97
2018-03-01T22:39:08.239Z,37.22
2018-03-01T22:41:35.756Z,37.05
2018-03-01T22:44:03.278Z,45.70
2018-03-01T22:46:30.814Z,40.47
2018-03-01T22:48:58.338Z,43.55
2018-03-01T22:51:25.993Z,40.42
2018-03-01T22:53:54.876Z,49.00
2018-03-01T22:56:22.557Z,40.75
2018-03-01T22:58:50.130Z,38.63
2018-03-01T23:01:17.672Z,36.30
2018-03-01T23:03:45.277Z,47.03
2018-03-01T23:06:13.855Z,36.47
2018-03-01T23:08:41.370Z,45.53
2018-03-01T23:11:08.892Z,45.08
2018-03-01T23:13:36.405Z,40.55
2018-03-01T23:16:03.604Z,39.15
2018-03-01T23:18:31.118Z,41.15
2018-03-01T23:20:58.635Z,38.25
2018-03-01T23:23:26.185Z,36.33
2018-03-01T23:25:53.705Z,46.13
2018-03-01T23:28:21.219Z,34.53
2018-03-01T23:30:48.871Z,36.88
2018-03-01T23:33:16.397Z,37.75
2018-03-01T23:35:43.988Z,40.15
2018-03-01T23:38:11.517Z,33.88
2018-03-01T23:40:39.041Z,40.80
2018-03-01T23:43:06.591Z,36.25
2018-03-01T23:45:34.105Z,37.25
2018-03-01T23:48:01.635Z,40.22
2018-03-01T23:50:29.148Z,34.03
2018-03-01T23:52:56.661Z,35.95
2018-03-01T23:55:24.161Z,34.58
2018-03-01T23:57:52.301Z,34.75
